Accueil
METAR-TAF:

METAR-TAF

Aéroports :

Alpnach, Suisse

latitude: 46-56-19N, longitude: 8-17-03E, altitude: 440 m

Observation

Le bulletin a été fait il y a 38 minutes, à 18:50 UTC
Vent 5 kt de nord, variant entre nord/nord-ouest et nord/nord-est
Température 6°C
Humidité 39%
Pression 1022 hPa
Visibilité 10 km ou plus

METAR: LSMA 311850Z AUTO 36005KT 330V030 9999NDV NCD 06/M07 Q1022 RMK

Heure: 21:28 (19:28 UTC)


TAF: absent

Observations et prévisions météorologiques de plus de 4000 aéroports (messages METAR et TAF).

Les stations disponibles sont représentées par des disques jaunes et rouges sur la carte.

Passer la souris dessus pour voir le nom de la station.

Cliquer dessus pour voir les observations et prévisions météorologiques.

Pour changer de carte: cliquez sur les boutons verts avec une croix noire pour zoomer, sur le bouton vert avec un tiret pour effectuer un zoom arrière, ou sur les flèches vertes pour les cartes adjacentes.


METAR-TAF: